Time;durP1;ratioP1;P1;durP2;ratioP2;P2;SDS_P1;SDS_P2;PMS_P1;PMS_P2;Temp;Humidity;BMP_temperature;BMP_pressure;BME280_temperature;BME280_humidity;BME280_pressure;Samples;Min_cycle;Max_cycle;Signal;HPM_P1;HPM_P2
2023/09/07 00:01:29;;;;;;;;;8.33;8.00;;;;;22.69;77.50;101452.78;5107299;27;45542;-74
2023/09/07 00:03:55;;;;;;;;;11.33;8.33;;;;;22.70;78.76;101463.47;5114052;27;45655;-73
2023/09/07 00:06:20;;;;;;;;;10.67;10.33;;;;;22.70;78.77;101465.31;5110635;27;45386;-74
2023/09/07 00:08:46;;;;;;;;;6.67;6.67;;;;;22.57;79.82;101449.31;5110016;27;45460;-74
2023/09/07 00:11:11;;;;;;;;;8.67;6.00;;;;;22.60;79.91;101467.06;5108451;27;45385;-74
2023/09/07 00:13:37;;;;;;;;;8.00;7.67;;;;;22.53;80.28;101457.78;5115808;27;45194;-74
2023/09/07 00:16:04;;;;;;;;;10.67;9.33;;;;;22.48;81.49;101451.94;5113841;27;45467;-73
2023/09/07 00:18:30;;;;;;;;;9.67;8.33;;;;;22.41;80.57;101446.25;5115628;27;45543;-73
2023/09/07 00:20:55;;;;;;;;;10.00;9.67;;;;;22.33;80.92;101446.88;5114266;27;46541;-73
2023/09/07 00:23:21;;;;;;;;;6.33;6.33;;;;;22.36;80.59;101459.25;5108854;27;45492;-73
2023/09/07 00:25:47;;;;;;;;;6.00;6.00;;;;;22.32;81.72;101457.78;5115827;27;45442;-74
2023/09/07 00:28:12;;;;;;;;;9.67;7.67;;;;;22.28;82.08;101453.66;5106009;27;45440;-74
2023/09/07 00:30:38;;;;;;;;;8.33;8.00;;;;;22.25;81.86;101460.16;5114289;27;45363;-74
2023/09/07 00:33:03;;;;;;;;;9.67;8.00;;;;;22.17;81.54;101443.81;5115812;27;45369;-73
2023/09/07 00:35:29;;;;;;;;;7.67;7.67;;;;;22.18;81.48;101452.75;5117259;27;45311;-74
2023/09/07 00:37:54;;;;;;;;;8.67;8.33;;;;;22.10;82.08;101449.84;5115584;27;45496;-74
2023/09/07 00:40:20;;;;;;;;;9.67;9.00;;;;;22.11;82.16;101454.25;5102157;27;45435;-74
2023/09/07 00:42:45;;;;;;;;;7.67;7.67;;;;;22.05;82.34;101452.94;5112268;27;45438;-73
2023/09/07 00:45:11;;;;;;;;;7.67;7.67;;;;;21.99;81.50;101453.44;5108290;27;45449;-74
2023/09/07 00:47:37;;;;;;;;;10.33;8.00;;;;;21.99;82.65;101466.06;5111293;27;45473;-74
2023/09/07 00:50:04;;;;;;;;;8.00;8.00;;;;;21.93;82.07;101462.03;5103422;27;46031;-74
2023/09/07 00:52:30;;;;;;;;;8.33;7.33;;;;;21.80;83.35;101440.63;5107678;27;45201;-74
2023/09/07 00:54:55;;;;;;;;;8.00;8.00;;;;;21.79;83.51;101447.00;5116374;27;45326;-74
2023/09/07 00:57:21;;;;;;;;;9.00;9.00;;;;;21.76;84.34;101443.69;5108889;27;45467;-73
2023/09/07 00:59:46;;;;;;;;;7.33;7.33;;;;;21.71;83.82;101441.41;5113208;27;46063;-74
2023/09/07 01:02:11;;;;;;;;;7.00;7.00;;;;;21.71;83.69;101449.50;5109740;27;45555;-74
2023/09/07 01:04:37;;;;;;;;;6.33;6.33;;;;;21.60;84.71;101435.19;5129006;27;45560;-74
2023/09/07 01:07:13;;;;;;;;;8.33;7.67;;;;;21.63;85.02;101448.41;5106396;27;45731;-74
2023/09/07 01:09:40;;;;;;;;;9.33;7.33;;;;;21.60;84.21;101451.34;5109436;27;46949;-74
2023/09/07 01:12:10;;;;;;;;;8.33;8.00;;;;;21.56;85.16;101445.38;5105731;27;45350;-74
2023/09/07 01:14:36;;;;;;;;;8.00;8.00;;;;;21.49;85.23;101440.63;5103382;27;45445;-74
2023/09/07 01:17:01;;;;;;;;;7.00;7.00;;;;;21.45;86.21;101433.78;5112454;27;45556;-74
2023/09/07 01:19:27;;;;;;;;;9.00;7.33;;;;;21.45;85.90;101436.47;5105262;27;45539;-74
2023/09/07 01:21:53;;;;;;;;;7.33;6.00;;;;;21.44;86.24;101434.75;5117503;27;45677;-74
2023/09/07 01:24:20;;;;;;;;;7.33;7.33;;;;;21.41;85.38;101445.78;5108780;27;45449;-73
2023/09/07 01:26:49;;;;;;;;;8.67;8.67;;;;;21.38;86.23;101446.91;5109509;27;45550;-74
2023/09/07 01:29:16;;;;;;;;;8.67;7.67;;;;;21.28;86.41;101437.84;5112066;27;45317;-73
2023/09/07 01:31:42;;;;;;;;;8.33;8.33;;;;;21.24;86.47;101436.41;5107175;27;45469;-74
2023/09/07 01:34:07;;;;;;;;;8.67;8.67;;;;;21.25;86.35;101446.19;5116063;27;45413;-74
2023/09/07 01:36:33;;;;;;;;;7.33;7.33;;;;;21.19;87.00;101438.63;5110004;27;45381;-74
2023/09/07 01:38:59;;;;;;;;;9.33;8.00;;;;;21.18;86.37;101444.97;5116036;27;45481;-75
2023/09/07 01:41:24;;;;;;;;;9.33;9.00;;;;;21.17;86.85;101440.59;5102784;27;45414;-75
2023/09/07 01:43:50;;;;;;;;;11.00;9.67;;;;;21.13;86.94;101444.50;5117080;27;45369;-75
2023/09/07 01:46:15;;;;;;;;;7.00;7.00;;;;;21.09;87.97;101437.63;5109367;27;45521;-75
2023/09/07 01:48:42;;;;;;;;;8.33;5.33;;;;;21.05;87.51;101445.09;5108563;27;46377;-74
2023/09/07 01:51:07;;;;;;;;;11.33;8.00;;;;;20.93;87.26;101427.25;5111919;27;45425;-74
2023/09/07 01:53:32;;;;;;;;;8.00;8.00;;;;;20.93;88.46;101432.63;5106614;27;45240;-74
2023/09/07 01:55:59;;;;;;;;;7.33;4.67;;;;;20.86;89.28;101438.59;5107738;27;46027;-75
2023/09/07 01:58:24;;;;;;;;;8.33;8.33;;;;;20.83;90.22;101438.84;5106355;27;46290;-75
2023/09/07 02:00:50;;;;;;;;;6.00;6.00;;;;;20.86;90.74;101444.84;5114433;27;45311;-74
2023/09/07 02:03:15;;;;;;;;;8.00;8.00;;;;;20.85;90.52;101455.72;5105605;27;45225;-74
2023/09/07 02:05:41;;;;;;;;;12.00;10.00;;;;;20.77;90.37;101441.06;5102290;27;45626;-74
2023/09/07 02:08:06;;;;;;;;;9.67;9.00;;;;;20.76;90.87;101450.09;5110758;27;46789;-74
2023/09/07 02:10:31;;;;;;;;;12.00;10.67;;;;;20.69;90.65;101432.75;5108142;27;45315;-74
2023/09/07 02:12:57;;;;;;;;;11.00;9.00;;;;;20.71;90.66;101443.41;5104758;27;45391;-74
2023/09/07 02:15:23;;;;;;;;;2.00;0.00;;;;;20.63;91.49;101437.75;5117170;27;45479;-73
2023/09/07 02:17:49;;;;;;;;;9.67;8.67;;;;;20.62;91.41;101436.03;5105562;27;46303;-73
2023/09/07 02:20:14;;;;;;;;;10.33;9.33;;;;;20.60;91.04;101433.47;5109687;27;45506;-73
2023/09/07 02:22:39;;;;;;;;;9.00;9.00;;;;;20.57;91.56;101438.25;5104101;27;45483;-73
2023/09/07 02:25:05;;;;;;;;;8.67;8.67;;;;;20.55;91.56;101445.59;5115317;27;45522;-73
2023/09/07 02:27:32;;;;;;;;;8.67;8.67;;;;;20.53;90.81;101447.50;5114317;27;46396;-74
2023/09/07 02:29:58;;;;;;;;;10.33;9.00;;;;;20.50;90.84;101443.25;5107474;27;45587;-74
2023/09/07 02:32:23;;;;;;;;;7.00;7.00;;;;;20.50;91.25;101439.69;5103291;27;46113;-73
2023/09/07 02:34:49;;;;;;;;;8.67;8.33;;;;;20.46;90.66;101432.84;5107691;27;45510;-74
2023/09/07 02:37:15;;;;;;;;;8.33;8.33;;;;;20.43;91.04;101436.63;5104366;27;46627;-74
2023/09/07 02:39:41;;;;;;;;;10.67;9.67;;;;;20.42;91.18;101439.47;5099904;27;45499;-74
2023/09/07 02:42:06;;;;;;;;;8.00;7.00;;;;;20.39;91.63;101434.28;5107070;27;45376;-73
2023/09/07 02:44:32;;;;;;;;;8.00;8.00;;;;;20.42;91.68;101437.59;5102284;27;45400;-74
2023/09/07 02:46:57;;;;;;;;;9.33;8.00;;;;;20.40;92.19;101433.31;5114981;27;48869;-73
2023/09/07 02:49:22;;;;;;;;;8.33;8.33;;;;;20.38;91.53;101448.72;5111333;27;49185;-75
2023/09/07 02:51:47;;;;;;;;;10.00;8.00;;;;;20.34;91.45;101439.19;5106725;27;45410;-75
2023/09/07 02:54:13;;;;;;;;;10.67;8.33;;;;;20.23;92.13;101421.16;5110459;27;45498;-75
2023/09/07 02:56:38;;;;;;;;;9.33;9.00;;;;;20.28;91.69;101435.16;5109072;27;46101;-76
2023/09/07 02:59:04;;;;;;;;;9.00;9.00;;;;;20.23;92.26;101435.47;5106921;27;45288;-75
2023/09/07 03:01:30;;;;;;;;;9.67;8.67;;;;;20.18;93.08;101434.13;5109366;27;45535;-75
2023/09/07 03:03:55;;;;;;;;;11.33;9.00;;;;;20.19;93.64;101435.81;5108976;27;45393;-76
2023/09/07 03:06:21;;;;;;;;;10.67;10.33;;;;;20.15;93.10;101432.53;5105468;27;46145;-75
2023/09/07 03:08:46;;;;;;;;;10.00;9.00;;;;;20.13;93.74;101430.91;5106140;27;45496;-75
2023/09/07 03:11:11;;;;;;;;;9.00;8.33;;;;;20.12;93.88;101434.59;5104627;27;45598;-75
2023/09/07 03:13:37;;;;;;;;;9.33;9.33;;;;;20.10;93.97;101434.69;5110475;27;46136;-75
2023/09/07 03:16:03;;;;;;;;;9.00;9.00;;;;;20.07;93.71;101434.06;5104209;27;47497;-75
2023/09/07 03:18:28;;;;;;;;;10.00;8.00;;;;;20.00;93.96;101425.63;5099571;27;45400;-75
2023/09/07 03:20:57;;;;;;;;;11.00;10.00;;;;;19.92;94.86;101409.28;5111481;27;45407;-75
2023/09/07 03:23:23;;;;;;;;;9.00;9.00;;;;;19.98;95.18;101427.59;5107055;27;45591;-76
2023/09/07 03:25:48;;;;;;;;;9.00;8.33;;;;;19.96;95.40;101431.38;5114020;27;47184;-75
2023/09/07 03:28:13;;;;;;;;;7.33;7.33;;;;;19.94;95.20;101428.78;5116688;27;57639;-75
2023/09/07 03:30:39;;;;;;;;;10.67;10.33;;;;;19.91;95.57;101431.72;5106753;27;45346;-75
2023/09/07 03:33:05;;;;;;;;;9.67;8.00;;;;;19.88;96.30;101415.84;5109599;27;45570;-75
2023/09/07 03:35:31;;;;;;;;;12.67;9.00;;;;;19.86;95.65;101412.41;5109056;27;46031;-75
2023/09/07 03:37:56;;;;;;;;;12.00;11.33;;;;;19.82;96.62;101416.31;5105001;27;45270;-75
2023/09/07 03:40:21;;;;;;;;;11.00;9.67;;;;;19.79;98.08;101413.84;5104141;27;45432;-75
2023/09/07 03:42:47;;;;;;;;;8.67;7.33;;;;;19.74;98.20;101416.88;5113280;27;45583;-75
2023/09/07 03:45:12;;;;;;;;;10.67;9.33;;;;;19.65;99.04;101409.53;5107788;27;45345;-75
2023/09/07 03:47:38;;;;;;;;;8.33;7.67;;;;;19.66;99.41;101421.13;5117434;27;45524;-75
2023/09/07 03:50:04;;;;;;;;;11.00;11.00;;;;;19.72;100.00;101426.03;5106042;27;45429;-75
2023/09/07 03:52:29;;;;;;;;;10.33;10.33;;;;;19.65;100.00;101428.31;5111892;27;45833;-75
2023/09/07 03:54:55;;;;;;;;;15.00;11.00;;;;;19.61;100.00;101424.13;5108039;27;46701;-75
2023/09/07 03:57:21;;;;;;;;;8.00;7.00;;;;;19.60;100.00;101430.47;5107434;27;45549;-75
2023/09/07 03:59:47;;;;;;;;;12.00;10.33;;;;;19.61;100.00;101431.31;5109714;27;45280;-75
2023/09/07 04:02:13;;;;;;;;;11.67;11.33;;;;;19.55;100.00;101427.28;5114296;27;46400;-74
2023/09/07 04:04:38;;;;;;;;;14.00;14.00;;;;;19.51;100.00;101411.53;5118926;27;47316;-75
2023/09/07 04:07:04;;;;;;;;;12.33;10.00;;;;;19.56;100.00;101423.66;5117615;27;48387;-75
2023/09/07 04:09:29;;;;;;;;;14.67;12.67;;;;;19.50;100.00;101423.25;5110204;27;45599;-75
2023/09/07 04:11:54;;;;;;;;;12.00;11.00;;;;;19.43;100.00;101409.44;5124041;27;45537;-75
2023/09/07 04:14:19;;;;;;;;;13.33;11.00;;;;;19.51;100.00;101428.47;5108615;27;46675;-75
2023/09/07 04:16:45;;;;;;;;;15.00;13.33;;;;;19.45;100.00;101420.03;5109630;27;45358;-74
2023/09/07 04:19:10;;;;;;;;;14.00;12.00;;;;;19.48;100.00;101436.75;5107226;27;45411;-75
2023/09/07 04:21:36;;;;;;;;;14.33;11.33;;;;;19.45;100.00;101423.56;5114922;27;45479;-75
2023/09/07 04:24:02;;;;;;;;;12.00;11.33;;;;;19.40;100.00;101425.75;5112584;27;46341;-75
2023/09/07 04:26:27;;;;;;;;;14.00;11.33;;;;;19.37;100.00;101425.09;5111089;27;45363;-75
2023/09/07 04:28:53;;;;;;;;;10.67;10.67;;;;;19.40;100.00;101439.16;5109807;27;45313;-74
2023/09/07 04:31:18;;;;;;;;;10.33;10.33;;;;;19.39;100.00;101436.56;5116408;27;45809;-74
2023/09/07 04:33:43;;;;;;;;;12.00;12.00;;;;;19.31;100.00;101420.16;5103369;27;45306;-73
2023/09/07 04:36:13;;;;;;;;;11.67;11.00;;;;;19.33;100.00;101437.00;5111601;27;45460;-73
2023/09/07 04:38:40;;;;;;;;;7.33;7.33;;;;;19.29;100.00;101424.78;5105014;27;45554;-73
2023/09/07 04:41:12;;;;;;;;;11.67;11.67;;;;;19.29;100.00;101420.28;5109679;27;45487;-73
2023/09/07 04:43:45;;;;;;;;;9.67;9.67;;;;;19.29;100.00;101424.78;5108631;27;45260;-73
2023/09/07 04:46:12;;;;;;;;;10.00;10.00;;;;;19.25;100.00;101422.31;5107526;27;45228;-74
2023/09/07 04:48:38;;;;;;;;;10.00;10.00;;;;;19.07;100.00;101404.06;5107675;27;45452;-74
2023/09/07 04:51:06;;;;;;;;;10.33;8.00;;;;;19.19;100.00;101428.16;5110899;27;45443;-74
2023/09/07 04:53:34;;;;;;;;;15.33;13.67;;;;;19.22;100.00;101432.41;5106544;27;45508;-75
2023/09/07 04:56:00;;;;;;;;;10.67;10.67;;;;;19.08;100.00;101411.97;5114091;27;45441;-74
2023/09/07 04:58:26;;;;;;;;;10.33;10.33;;;;;19.19;100.00;101438.00;5110194;27;45654;-74
2023/09/07 05:00:52;;;;;;;;;13.33;12.00;;;;;19.15;100.00;101445.41;5109427;27;45738;-74
2023/09/07 05:03:17;;;;;;;;;12.67;12.67;;;;;19.17;100.00;101450.69;5103508;27;45451;-74
2023/09/07 05:05:43;;;;;;;;;12.67;12.67;;;;;19.09;100.00;101437.81;5114459;27;45484;-74
2023/09/07 05:08:09;;;;;;;;;13.00;12.00;;;;;19.24;100.00;101458.16;5107556;27;45386;-74
2023/09/07 05:10:35;;;;;;;;;15.67;14.00;;;;;19.27;100.00;101457.09;5112094;27;45555;-75
2023/09/07 05:13:01;;;;;;;;;12.67;12.67;;;;;19.32;100.00;101454.06;5119742;27;46973;-74
2023/09/07 05:15:26;;;;;;;;;14.33;13.33;;;;;19.31;100.00;101452.34;5111612;27;45347;-74
2023/09/07 05:17:52;;;;;;;;;13.33;13.33;;;;;19.37;100.00;101449.22;5114754;27;45272;-75
2023/09/07 05:20:18;;;;;;;;;11.67;11.67;;;;;19.37;100.00;101452.75;5109428;27;46100;-75
2023/09/07 05:22:43;;;;;;;;;16.00;13.67;;;;;19.45;100.00;101457.59;5111722;27;46328;-74
2023/09/07 05:25:09;;;;;;;;;16.67;13.00;;;;;19.44;100.00;101458.56;5110328;27;45359;-75
2023/09/07 05:27:35;;;;;;;;;12.67;12.67;;;;;19.40;100.00;101454.38;5111076;27;45510;-74
2023/09/07 05:30:01;;;;;;;;;14.00;11.67;;;;;19.44;100.00;101470.16;5110218;27;45406;-74
2023/09/07 05:32:26;;;;;;;;;11.67;11.67;;;;;19.41;100.00;101456.09;5107157;27;46137;-74
2023/09/07 05:34:51;;;;;;;;;12.33;11.67;;;;;19.32;100.00;101444.19;5106279;27;45421;-74
2023/09/07 05:37:17;;;;;;;;;12.67;11.67;;;;;19.42;100.00;101465.88;5105715;27;45379;-75
2023/09/07 05:39:42;;;;;;;;;13.33;11.00;;;;;19.40;100.00;101451.69;5107741;27;45404;-74
2023/09/07 05:42:07;;;;;;;;;11.00;9.67;;;;;19.40;100.00;101468.69;5108838;27;47302;-74
2023/09/07 05:44:33;;;;;;;;;8.33;7.00;;;;;19.35;100.00;101456.53;5105231;27;49732;-74
2023/09/07 05:46:58;;;;;;;;;12.00;12.00;;;;;19.40;100.00;101457.94;5107208;27;48489;-75
2023/09/07 05:49:24;;;;;;;;;12.00;12.00;;;;;19.39;100.00;101466.06;5115052;27;45443;-74
2023/09/07 05:51:49;;;;;;;;;13.33;12.33;;;;;19.39;100.00;101461.56;5105438;27;46518;-75
2023/09/07 05:54:14;;;;;;;;;14.00;14.00;;;;;19.39;100.00;101466.06;5114461;27;45495;-75
2023/09/07 05:56:40;;;;;;;;;16.00;14.33;;;;;19.34;100.00;101458.34;5103011;27;45591;-76
2023/09/07 05:59:05;;;;;;;;;17.00;16.00;;;;;19.43;100.00;101465.78;5109782;27;48900;-75
2023/09/07 06:01:31;;;;;;;;;12.33;12.33;;;;;19.43;100.00;101457.72;5113485;27;46316;-76
2023/09/07 06:03:58;;;;;;;;;13.33;11.67;;;;;19.47;100.00;101466.41;5103535;27;45430;-76
2023/09/07 06:06:23;;;;;;;;;23.67;18.00;;;;;19.52;100.00;101472.28;5107241;27;45405;-75
2023/09/07 06:08:49;;;;;;;;;15.00;15.00;;;;;19.58;100.00;101470.00;5117591;27;44749;-75
2023/09/07 06:11:14;;;;;;;;;14.00;14.00;;;;;19.65;100.00;101479.31;5116973;27;45592;-75
2023/09/07 06:13:39;;;;;;;;;15.67;15.00;;;;;19.61;100.00;101461.72;5119567;27;45738;-75
2023/09/07 06:16:05;;;;;;;;;13.33;13.33;;;;;19.71;100.00;101478.84;5107313;27;51868;-76
2023/09/07 06:18:30;;;;;;;;;17.67;14.00;;;;;19.67;100.00;101469.31;5107858;27;45398;-75
2023/09/07 06:20:55;;;;;;;;;16.67;15.00;;;;;19.70;100.00;101468.22;5105635;27;46278;-75
2023/09/07 06:23:21;;;;;;;;;14.00;14.00;;;;;19.80;100.00;101476.47;5104608;27;45374;-75
2023/09/07 06:25:46;;;;;;;;;16.67;15.67;;;;;19.84;100.00;101475.22;5100391;27;45274;-75
2023/09/07 06:28:11;;;;;;;;;15.00;14.00;;;;;19.87;100.00;101483.91;5113346;27;52149;-75
2023/09/07 06:30:38;;;;;;;;;17.33;14.67;;;;;19.92;100.00;101475.53;5107930;27;46823;-75
2023/09/07 06:33:04;;;;;;;;;14.00;13.67;;;;;19.85;100.00;101456.34;5105324;27;45417;-75
2023/09/07 06:35:29;;;;;;;;;16.00;16.00;;;;;19.97;100.00;101471.50;5116831;27;45317;-75
2023/09/07 06:37:55;;;;;;;;;15.33;13.33;;;;;19.97;100.00;101463.47;5115415;27;45411;-76
2023/09/07 06:40:21;;;;;;;;;22.00;16.33;;;;;20.04;100.00;101466.53;5106950;27;47203;-75
2023/09/07 06:42:46;;;;;;;;;15.00;13.33;;;;;20.07;100.00;101460.94;5099363;27;45396;-75
2023/09/07 06:45:11;;;;;;;;;14.00;13.33;;;;;20.20;100.00;101473.31;5102246;27;45570;-75
2023/09/07 06:47:37;;;;;;;;;16.00;13.67;;;;;20.29;100.00;101465.56;5111553;27;45965;-75
2023/09/07 06:50:04;;;;;;;;;12.67;11.33;;;;;20.36;98.30;101466.78;5103207;27;45963;-75
2023/09/07 06:52:30;;;;;;;;;10.00;7.00;;;;;20.44;97.76;101469.75;5101372;27;45499;-75
2023/09/07 06:54:56;;;;;;;;;10.33;9.33;;;;;20.50;96.94;101474.63;5111051;27;45490;-75
2023/09/07 06:57:21;;;;;;;;;5.67;5.67;;;;;20.57;97.78;101479.41;5104075;27;45750;-75
2023/09/07 06:59:47;;;;;;;;;14.67;9.00;;;;;20.63;95.36;101472.69;5110247;27;45488;-75
2023/09/07 07:02:12;;;;;;;;;12.67;11.00;;;;;20.72;93.67;101482.72;5107400;27;45610;-73
2023/09/07 07:04:38;;;;;;;;;13.33;12.00;;;;;20.75;92.41;101480.66;5112007;27;45299;-74
2023/09/07 07:07:04;;;;;;;;;13.33;11.00;;;;;20.76;92.18;101477.00;5108137;27;45974;-73
2023/09/07 07:09:33;;;;;;;;;10.33;10.00;;;;;20.90;91.17;101486.66;5108818;27;47491;-74
2023/09/07 07:12:00;;;;;;;;;12.67;10.33;;;;;20.94;92.57;101484.59;5106871;27;45487;-74
2023/09/07 07:14:26;;;;;;;;;10.67;10.67;;;;;20.98;90.26;101478.81;5105540;27;45291;-74
2023/09/07 07:16:51;;;;;;;;;14.33;11.00;;;;;21.11;90.03;101476.91;5110864;27;45297;-74
2023/09/07 07:19:16;;;;;;;;;16.33;13.67;;;;;21.19;90.00;101481.66;5112151;27;61067;-74
2023/09/07 07:21:42;;;;;;;;;10.33;9.00;;;;;21.16;91.08;101461.25;5119572;27;45389;-74
2023/09/07 07:24:07;;;;;;;;;7.67;7.33;;;;;21.22;89.18;101465.28;5114424;27;45851;-74
2023/09/07 07:26:33;;;;;;;;;11.00;11.00;;;;;21.27;88.92;101454.97;5099060;27;45932;-74
2023/09/07 07:28:59;;;;;;;;;9.33;8.67;;;;;21.45;87.79;101474.16;5099102;27;45351;-74
2023/09/07 07:31:24;;;;;;;;;15.33;11.00;;;;;21.48;87.63;101468.53;5099085;27;45353;-74
2023/09/07 07:33:50;;;;;;;;;9.67;9.67;;;;;21.59;86.51;101473.88;5112356;27;45683;-74
2023/09/07 07:36:15;;;;;;;;;14.33;12.00;;;;;21.66;87.04;101481.31;5117007;27;45488;-74
2023/09/07 07:38:40;;;;;;;;;10.00;10.00;;;;;21.73;85.40;101479.81;5118663;27;45318;-75
2023/09/07 07:41:06;;;;;;;;;10.00;10.00;;;;;21.77;84.56;101470.53;5105823;27;45493;-74
2023/09/07 07:43:33;;;;;;;;;13.67;12.67;;;;;21.86;84.46;101474.28;5106697;27;45410;-74
2023/09/07 07:45:59;;;;;;;;;12.67;11.00;;;;;21.97;82.97;101479.66;5099461;27;45439;-74
2023/09/07 07:48:24;;;;;;;;;10.67;9.67;;;;;21.98;84.01;101462.53;5110193;27;45423;-74
2023/09/07 07:50:50;;;;;;;;;11.33;10.67;;;;;22.14;84.96;101486.31;5100061;27;45405;-73
2023/09/07 07:53:15;;;;;;;;;15.33;10.00;;;;;22.19;82.73;101478.69;5111027;27;45286;-73
2023/09/07 07:55:40;;;;;;;;;10.00;9.67;;;;;22.24;83.07;101469.25;5107361;27;45554;-74
2023/09/07 07:58:10;;;;;;;;;13.67;12.00;;;;;22.40;80.55;101482.25;5114927;27;45351;-74
2023/09/07 08:00:36;;;;;;;;;12.00;11.00;;;;;22.54;78.58;101481.06;5099059;27;45299;-74
2023/09/07 08:03:03;;;;;;;;;11.33;11.33;;;;;22.66;79.82;101483.59;5101998;27;45405;-74
2023/09/07 08:05:29;;;;;;;;;11.00;8.67;;;;;22.76;76.62;101486.34;5108283;27;45332;-74
2023/09/07 08:07:54;;;;;;;;;10.33;8.67;;;;;22.80;79.06;101480.56;5119413;27;45414;-74
2023/09/07 08:10:20;;;;;;;;;10.33;10.00;;;;;22.93;77.95;101472.22;5106207;27;45313;-74
2023/09/07 08:12:45;;;;;;;;;9.33;8.33;;;;;23.09;78.07;101488.78;5118876;27;45283;-74
2023/09/07 08:15:11;;;;;;;;;11.33;11.33;;;;;23.21;77.21;101489.50;5118673;27;45464;-74
2023/09/07 08:17:37;;;;;;;;;12.33;12.00;;;;;23.28;73.23;101480.72;5107264;27;46558;-74
2023/09/07 08:20:03;;;;;;;;;9.67;9.33;;;;;23.34;70.66;101476.63;5111413;27;45586;-74
2023/09/07 08:22:28;;;;;;;;;11.00;11.00;;;;;23.51;71.82;101496.72;5115528;27;45463;-74
2023/09/07 08:24:54;;;;;;;;;11.00;11.00;;;;;23.60;72.20;101475.16;5118204;27;45816;-74
2023/09/07 08:27:20;;;;;;;;;10.33;10.33;;;;;23.68;70.06;101466.34;5114006;27;45929;-74
2023/09/07 08:29:48;;;;;;;;;10.00;10.00;;;;;23.92;71.01;101488.41;5109407;27;45386;-74
2023/09/07 08:32:14;;;;;;;;;12.67;12.33;;;;;24.00;69.45;101469.63;5115103;27;45400;-74
2023/09/07 08:34:41;;;;;;;;;13.33;12.33;;;;;24.19;71.56;101469.66;5115604;27;45374;-74
2023/09/07 08:37:10;;;;;;;;;9.33;9.33;;;;;24.34;68.02;101470.06;5103166;27;45310;-74
2023/09/07 08:39:42;;;;;;;;;11.00;9.67;;;;;24.48;71.16;101466.91;5111194;27;45407;-75
2023/09/07 08:42:07;;;;;;;;;12.33;11.33;;;;;24.64;70.09;101464.44;5111611;27;45393;-75
2023/09/07 08:44:36;;;;;;;;;10.67;9.00;;;;;24.78;68.49;101466.69;5103811;27;45507;-74
2023/09/07 08:47:04;;;;;;;;;8.00;8.00;;;;;24.92;68.21;101464.53;5130794;27;46872;-74
2023/09/07 08:49:29;;;;;;;;;11.00;9.67;;;;;24.99;65.77;101461.09;5115695;27;45461;-75
2023/09/07 08:51:59;;;;;;;;;8.00;8.00;;;;;25.16;66.11;101462.16;5113301;27;45524;-74
2023/09/07 08:54:25;;;;;;;;;14.00;13.00;;;;;25.30;65.67;101454.34;5109695;27;45447;-74
2023/09/07 08:56:50;;;;;;;;;13.00;10.33;;;;;25.41;65.48;101450.59;5117801;27;45422;-74
2023/09/07 08:59:16;;;;;;;;;10.00;9.67;;;;;25.49;65.89;101453.38;5105185;27;45394;-74
2023/09/07 09:01:41;;;;;;;;;11.00;10.00;;;;;25.59;64.53;101453.38;5113782;27;45416;-75
2023/09/07 09:04:08;;;;;;;;;11.00;10.33;;;;;25.55;62.00;101438.41;5109451;27;45342;-74
2023/09/07 09:06:33;;;;;;;;;10.67;10.67;;;;;25.64;62.17;101451.88;5117182;27;45568;-74
2023/09/07 09:08:59;;;;;;;;;14.33;13.00;;;;;25.74;62.45;101433.69;5101721;27;45314;-75
2023/09/07 09:11:26;;;;;;;;;12.00;11.00;;;;;25.92;64.10;101450.78;5113343;27;45281;-75
2023/09/07 09:13:52;;;;;;;;;19.33;14.67;;;;;26.02;61.95;101441.72;5110198;27;45621;-74
2023/09/07 09:16:18;;;;;;;;;17.33;11.67;;;;;26.09;60.86;101434.66;5113119;27;46312;-75
2023/09/07 09:18:52;;;;;;;;;11.67;11.67;;;;;26.24;62.70;101446.72;5106637;27;45365;-75
2023/09/07 09:21:21;;;;;;;;;14.00;12.67;;;;;26.22;59.70;101429.72;5112924;27;45410;-75
2023/09/07 09:23:52;;;;;;;;;15.67;13.33;;;;;26.32;62.88;101442.19;5121677;27;45317;-74
2023/09/07 09:26:17;;;;;;;;;14.00;10.67;;;;;26.51;62.83;101451.13;5107313;27;46392;-74
2023/09/07 09:28:46;;;;;;;;;14.67;14.00;;;;;26.61;60.87;101443.72;5100680;27;45442;-75
2023/09/07 09:31:13;;;;;;;;;13.00;12.00;;;;;26.70;61.52;101442.78;5108041;27;45319;-74
2023/09/07 09:33:39;;;;;;;;;16.67;12.33;;;;;26.77;58.37;101446.53;5105651;27;45390;-74
2023/09/07 09:36:06;;;;;;;;;15.33;12.33;;;;;26.76;57.98;101437.56;5114037;27;46789;-75
2023/09/07 09:38:32;;;;;;;;;12.67;11.67;;;;;26.82;59.85;101439.66;5113868;27;45388;-75
2023/09/07 09:40:58;;;;;;;;;11.33;10.00;;;;;26.93;59.31;101442.06;5114281;27;45612;-74
2023/09/07 09:43:25;;;;;;;;;10.33;10.33;;;;;27.05;58.55;101450.78;5120681;27;45544;-75
2023/09/07 09:45:52;;;;;;;;;13.33;9.67;;;;;27.14;59.32;101444.38;5106937;27;46213;-75
2023/09/07 09:48:19;;;;;;;;;8.00;8.00;;;;;27.19;57.68;101438.47;5119174;27;45291;-75
2023/09/07 09:50:48;;;;;;;;;10.00;8.00;;;;;27.23;57.94;101440.66;5109074;27;45471;-75
2023/09/07 09:53:18;;;;;;;;;9.33;9.33;;;;;27.31;56.33;101446.13;5109746;27;45336;-75
2023/09/07 09:55:47;;;;;;;;;8.00;8.00;;;;;27.32;57.06;101441.56;5114258;27;46353;-74
2023/09/07 09:58:16;;;;;;;;;12.00;10.33;;;;;27.43;57.03;101447.56;5116446;27;45310;-75
2023/09/07 10:00:48;;;;;;;;;10.67;9.00;;;;;27.48;56.30;101443.50;5100644;27;45335;-75
2023/09/07 10:03:28;;;;;;;;;10.33;10.33;;;;;27.54;56.09;101443.69;5115954;27;45515;-75
2023/09/07 10:05:53;;;;;;;;;12.00;10.33;;;;;27.58;56.66;101447.78;5101569;27;46414;-75
2023/09/07 10:08:22;;;;;;;;;14.00;12.00;;;;;27.60;56.59;101439.44;5103999;27;46165;-75
2023/09/07 10:10:49;;;;;;;;;12.67;12.67;;;;;27.62;55.93;101442.81;5109825;27;45359;-75
2023/09/07 10:13:15;;;;;;;;;12.33;11.33;;;;;27.65;54.74;101442.53;5102107;27;45667;-75
2023/09/07 10:15:41;;;;;;;;;12.33;10.67;;;;;27.67;55.83;101438.59;5099536;27;47093;-75
2023/09/07 10:18:14;;;;;;;;;9.67;8.67;;;;;27.71;55.74;101430.97;5102909;27;45437;-75
2023/09/07 10:20:58;;;;;;;;;12.00;10.33;;;;;27.84;56.34;101436.75;5104139;27;45468;-75
2023/09/07 10:23:45;;;;;;;;;11.00;11.00;;;;;27.89;55.70;101439.81;5119324;27;45618;-75
2023/09/07 10:26:13;;;;;;;;;5.67;5.33;;;;;27.91;55.46;101432.34;5106453;27;45413;-76
2023/09/07 10:28:39;;;;;;;;;11.67;11.00;;;;;27.97;56.58;101436.25;5113851;27;45455;-75
2023/09/07 10:31:07;;;;;;;;;10.67;10.33;;;;;27.98;54.70;101427.91;5107528;27;45201;-75
2023/09/07 10:33:34;;;;;;;;;10.33;10.33;;;;;28.04;55.94;101429.97;5109947;27;45505;-75
2023/09/07 10:36:00;;;;;;;;;11.67;10.67;;;;;28.02;55.65;101421.13;5116939;27;45376;-75
2023/09/07 10:38:26;;;;;;;;;9.67;9.67;;;;;28.02;55.90;101428.41;5128150;27;45543;-75
2023/09/07 10:40:58;;;;;;;;;9.00;9.00;;;;;27.96;55.77;101424.53;5114700;27;45296;-75
2023/09/07 10:43:31;;;;;;;;;10.00;9.33;;;;;27.96;55.72;101416.38;5100616;27;45499;-75
2023/09/07 10:46:00;;;;;;;;;13.00;11.00;;;;;27.98;55.90;101406.16;5112898;27;45638;-75
2023/09/07 10:48:28;;;;;;;;;11.67;11.00;;;;;27.93;56.04;101398.53;5101494;27;45355;-75
2023/09/07 10:50:54;;;;;;;;;12.67;12.67;;;;;28.03;55.08;101405.66;5105005;27;45232;-74
2023/09/07 10:53:30;;;;;;;;;13.00;11.67;;;;;28.09;55.88;101408.56;5107982;27;45613;-76
2023/09/07 10:56:02;;;;;;;;;13.67;9.00;;;;;28.15;57.03;101407.03;5113160;27;46083;-75
2023/09/07 10:58:43;;;;;;;;;9.00;9.00;;;;;28.18;55.00;101404.81;5108228;27;46293;-75
2023/09/07 11:01:09;;;;;;;;;11.33;11.33;;;;;28.16;55.58;101404.16;5104303;27;45382;-75
2023/09/07 11:03:37;;;;;;;;;13.00;11.67;;;;;28.25;55.08;101403.13;5118183;27;45359;-75
2023/09/07 11:06:20;;;;;;;;;11.33;10.00;;;;;28.22;54.42;101389.00;5109517;27;45520;-76
2023/09/07 11:08:48;;;;;;;;;12.33;12.33;;;;;28.23;55.18;101397.00;5102634;27;45419;-74
2023/09/07 11:11:14;;;;;;;;;11.00;11.00;;;;;28.23;56.23;101391.56;5113082;27;45306;-75